Terminal Aerodrome Forecast
Issued by NWS

Home | Current Version | Previous Version | Text Only | Print | Product List | Glossary On
Versions: 1 2 3 4 5 6 7 8 9 10 11 12 13 14 15 16 17 18 19 20 21
000
FTUS46 KMTR 201100
TAFMRY
TAF
KMRY 201140Z 2012/2112 00000KT P6SM OVC015
     FM201800 26009KT P6SM OVC015
     FM202100 25009KT P6SM SCT015
     FM210400 24004KT P6SM OVC011
     FM210600 22003KT P6SM OVC007=

USA.gov is the U.S. government's official web portal to all federal, state and local government web resources and services.